Time;durP1;ratioP1;P1;durP2;ratioP2;P2;SDS_P1;SDS_P2;PMS_P1;PMS_P2;Temp;Humidity;BMP_temperature;BMP_pressure;BME280_temperature;BME280_humidity;BME280_pressure;Samples;Min_cycle;Max_cycle;Signal;HPM_P1;HPM_P2
2022/10/31 00:02:10;;;;;;;15.15;3.20;;;;;;;16.07;100.00;98237.75;6091594;23;20093;-95
2022/10/31 00:04:38;;;;;;;17.85;3.20;;;;;;;16.01;100.00;98249.38;6092088;23;20025;-96
2022/10/31 00:07:28;;;;;;;19.50;3.80;;;;;;;15.99;100.00;98248.59;6092073;23;20029;-95
2022/10/31 00:09:54;;;;;;;21.77;3.58;;;;;;;15.86;100.00;98256.09;6077208;23;20511;-95
2022/10/31 00:12:19;;;;;;;16.73;3.55;;;;;;;16.07;100.00;98237.75;6092527;23;20074;-96
2022/10/31 00:14:48;;;;;;;20.70;3.80;;;;;;;15.48;100.00;98252.28;6091904;23;20030;-95
2022/10/31 00:17:13;;;;;;;20.35;3.63;;;;;;;15.82;100.00;98251.00;6093617;23;20632;-95
2022/10/31 00:19:38;;;;;;;21.45;3.78;;;;;;;15.81;100.00;98244.91;6091418;23;20022;-95
2022/10/31 00:22:06;;;;;;;15.77;3.42;;;;;;;15.49;100.00;98248.69;6091357;23;20078;-96
2022/10/31 00:24:32;;;;;;;17.30;3.60;;;;;;;15.22;100.00;98251.44;6096062;23;20026;-95
2022/10/31 00:26:57;;;;;;;17.77;3.80;;;;;;;15.46;100.00;98248.81;6123010;23;20776;-95
2022/10/31 00:29:22;;;;;;;24.05;4.05;;;;;;;15.39;100.00;98268.38;6096216;23;20014;-96
2022/10/31 00:31:48;;;;;;;17.23;3.67;;;;;;;15.70;100.00;98265.47;6098026;23;20009;-95
2022/10/31 00:34:13;;;;;;;16.75;3.50;;;;;;;15.43;100.00;98269.97;6096033;23;20017;-94
2022/10/31 00:36:39;;;;;;;19.02;3.95;;;;;;;15.24;100.00;98262.75;6096726;23;20025;-94
2022/10/31 00:39:08;;;;;;;20.63;3.25;;;;;;;15.71;100.00;98267.16;6124084;23;20009;-95
2022/10/31 00:41:34;;;;;;;25.60;3.92;;;;;;;15.93;100.00;98267.22;6097286;23;19998;-94
2022/10/31 00:44:02;;;;;;;13.63;3.33;;;;;;;15.66;100.00;98269.13;6095612;23;20014;-95
2022/10/31 00:46:28;;;;;;;16.90;3.70;;;;;;;15.62;100.00;98272.78;6096875;23;20017;-95
2022/10/31 00:48:53;;;;;;;19.30;3.85;;;;;;;15.59;100.00;98259.72;6095274;23;20006;-96
2022/10/31 00:51:19;;;;;;;24.95;3.90;;;;;;;15.43;100.00;98276.06;6095945;23;20436;-95
2022/10/31 00:53:44;;;;;;;23.25;4.00;;;;;;;15.00;100.00;98274.97;6120318;23;20010;-95
2022/10/31 00:56:10;;;;;;;21.67;4.20;;;;;;;15.17;100.00;98282.25;6094201;23;20032;-95
2022/10/31 00:58:36;;;;;;;22.63;3.65;;;;;;;15.21;100.00;98283.03;6095832;23;20569;-95
2022/10/31 01:01:02;;;;;;;20.60;4.50;;;;;;;15.32;100.00;98280.84;6094501;23;20014;-95
2022/10/31 01:03:31;;;;;;;24.45;4.72;;;;;;;15.11;100.00;98277.22;6095864;23;20005;-95
2022/10/31 01:06:04;;;;;;;27.00;4.60;;;;;;;14.91;100.00;98280.56;6095426;23;20010;-95
2022/10/31 01:08:30;;;;;;;26.60;4.53;;;;;;;15.33;100.00;98286.06;6122025;23;20638;-95
2022/10/31 01:11:09;;;;;;;24.23;4.47;;;;;;;15.00;100.00;98278.47;6094396;23;20444;-95
2022/10/31 01:13:35;;;;;;;24.65;4.53;;;;;;;15.07;100.00;98286.13;6095071;23;20087;-94
2022/10/31 01:16:03;;;;;;;19.80;4.25;;;;;;;15.65;100.00;98272.66;6095850;23;20044;-95
2022/10/31 01:18:28;;;;;;;23.33;4.22;;;;;;;15.51;100.00;98271.38;6121147;23;20006;-95
2022/10/31 01:21:03;;;;;;;15.07;3.67;;;;;;;15.36;100.00;98269.31;6095279;23;20010;-95
2022/10/31 01:23:29;;;;;;;18.52;3.25;;;;;;;14.97;100.00;98272.47;6097861;23;20010;-95
2022/10/31 01:26:11;;;;;;;19.77;4.10;;;;;;;15.26;100.00;98279.31;6121965;23;20025;-95
2022/10/31 01:28:39;;;;;;;21.33;3.95;;;;;;;15.85;100.00;98270.16;6096168;23;20100;-96
2022/10/31 01:31:07;;;;;;;21.20;3.63;;;;;;;15.93;100.00;98271.66;6096398;23;20446;-95
2022/10/31 01:33:36;;;;;;;20.42;4.50;;;;;;;15.58;100.00;98279.91;6097841;23;20002;-95
2022/10/31 01:36:14;;;;;;;17.30;3.42;;;;;;;15.62;100.00;98268.38;6097249;23;20055;-95
2022/10/31 01:38:41;;;;;;;17.35;4.05;;;;;;;16.07;100.00;98264.06;6095943;23;20001;-95
2022/10/31 01:41:07;;;;;;;26.25;4.00;;;;;;;15.50;100.00;98272.34;6097598;23;20029;-95
2022/10/31 01:44:14;;;;;;;21.33;3.85;;;;;;;16.43;100.00;98260.03;6123761;23;20013;-94
2022/10/31 01:46:46;;;;;;;19.38;2.90;;;;;;;16.16;100.00;98257.59;5954934;24;20024;-95
2022/10/31 01:49:30;;;;;;;22.08;3.83;;;;;;;16.19;100.00;98255.69;5951609;24;20015;-96
2022/10/31 01:52:09;;;;;;;19.63;3.53;;;;;;;15.93;100.00;98254.06;5951746;24;20012;-95
2022/10/31 01:54:41;;;;;;;18.60;3.33;;;;;;;15.95;100.00;98254.00;5951698;24;20069;-95
2022/10/31 01:57:10;;;;;;;24.55;3.70;;;;;;;15.62;100.00;98260.47;5953694;24;20016;-95
2022/10/31 01:59:41;;;;;;;25.40;3.70;;;;;;;15.49;100.00;98267.09;5950962;24;20534;-94
2022/10/31 02:02:09;;;;;;;18.17;3.35;;;;;;;15.41;100.00;98267.41;5953332;24;20024;-94
2022/10/31 02:04:35;;;;;;;17.10;3.78;;;;;;;15.58;100.00;98273.81;5978493;24;20008;-95
2022/10/31 02:07:11;;;;;;;21.70;4.15;;;;;;;16.09;100.00;98261.38;5953635;24;20045;-95
2022/10/31 02:09:37;;;;;;;15.50;3.47;;;;;;;15.82;100.00;98262.41;5953832;24;20016;-94
2022/10/31 02:12:04;;;;;;;14.80;3.35;;;;;;;16.06;100.00;98259.75;5953605;24;20048;-96
2022/10/31 02:14:31;;;;;;;19.08;3.63;;;;;;;15.63;100.00;98261.34;5953967;24;20392;-95
2022/10/31 02:16:59;;;;;;;20.88;3.50;;;;;;;15.52;100.00;98267.00;5954629;24;20399;-95
2022/10/31 02:19:32;;;;;;;14.52;3.03;;;;;;;15.49;100.00;98264.47;5958912;23;20131;-96
2022/10/31 02:22:09;;;;;;;23.55;4.43;;;;;;;15.82;100.00;98279.94;6098855;23;20428;-95
2022/10/31 02:24:46;;;;;;;21.67;3.65;;;;;;;15.54;100.00;98278.31;6088749;23;20077;-96
2022/10/31 02:27:32;;;;;;;20.55;3.22;;;;;;;15.61;100.00;98271.06;6070026;23;20006;-96
2022/10/31 02:30:08;;;;;;;16.25;3.45;;;;;;;15.80;100.00;98276.53;6069335;23;20036;-96
2022/10/31 02:32:52;;;;;;;24.08;3.63;;;;;;;15.57;100.00;98272.94;6070230;23;20071;-95
2022/10/31 02:35:24;;;;;;;25.50;4.13;;;;;;;15.74;100.00;98276.69;6069434;23;20091;-95
2022/10/31 02:37:55;;;;;;;24.17;3.60;;;;;;;15.72;100.00;98271.50;6069899;23;20533;-94
2022/10/31 02:40:39;;;;;;;25.13;4.25;;;;;;;15.88;100.00;98263.94;6068166;23;20033;-94
2022/10/31 02:43:19;;;;;;;;;;;;;;;15.95;100.00;98265.41;6068827;23;20002;-95
2022/10/31 02:45:57;;;;;;;24.45;3.45;;;;;;;15.87;100.00;98243.81;6095168;23;19909;-95
2022/10/31 02:48:28;;;;;;;18.83;3.65;;;;;;;15.77;100.00;98258.19;6068457;23;20141;-95
2022/10/31 02:51:02;;;;;;;18.75;3.60;;;;;;;15.88;100.00;98256.06;6068477;23;20014;-96
2022/10/31 02:53:33;;;;;;;15.40;3.58;;;;;;;15.94;100.00;98247.91;6095140;23;20042;-95
2022/10/31 02:56:06;;;;;;;18.27;3.72;;;;;;;15.76;100.00;98249.44;6069203;23;20010;-96
2022/10/31 02:58:36;;;;;;;17.58;3.70;;;;;;;15.52;100.00;98248.63;6067166;23;20681;-94
2022/10/31 03:01:21;;;;;;;24.75;3.80;;;;;;;15.86;100.00;98237.69;6086420;23;20473;-93
2022/10/31 03:04:01;;;;;;;21.35;3.50;;;;;;;15.93;100.00;98230.41;6150584;23;20088;-94
2022/10/31 03:06:35;;;;;;;19.67;3.40;;;;;;;15.81;100.00;98239.66;6178977;23;20859;-95
2022/10/31 03:09:13;;;;;;;17.45;3.40;;;;;;;15.43;100.00;98235.81;6153975;23;20004;-93
2022/10/31 03:11:52;;;;;;;18.92;3.55;;;;;;;15.63;100.00;98243.81;6154245;23;20008;-95
2022/10/31 03:14:24;;;;;;;17.95;3.40;;;;;;;15.99;100.00;98230.19;6154175;23;20095;-94
2022/10/31 03:16:54;;;;;;;21.80;3.78;;;;;;;15.82;100.00;98217.72;6180555;23;20005;-93
2022/10/31 03:19:31;;;;;;;23.45;3.38;;;;;;;15.55;100.00;98203.81;6153517;23;20007;-92
2022/10/31 03:22:22;;;;;;;23.50;4.03;;;;;;;15.83;100.00;98205.41;6152253;23;20016;-93
2022/10/31 03:24:51;;;;;;;24.13;3.95;;;;;;;15.49;100.00;98210.16;6154086;23;20555;-93
2022/10/31 03:27:25;;;;;;;16.85;3.90;;;;;;;15.38;100.00;98193.94;6153196;23;20015;-95
2022/10/31 03:29:54;;;;;;;22.42;4.10;;;;;;;15.33;100.00;98201.97;6153312;23;20015;-93
2022/10/31 03:32:25;;;;;;;23.25;3.30;;;;;;;15.52;100.00;98202.16;6153990;23;20023;-94
2022/10/31 03:34:55;;;;;;;16.73;3.22;;;;;;;15.29;100.00;98207.41;6152652;23;20067;-93
2022/10/31 03:37:22;;;;;;;17.23;3.17;;;;;;;15.05;100.00;98210.03;6152022;23;20021;-94
2022/10/31 03:39:49;;;;;;;18.02;3.85;;;;;;;15.63;100.00;98196.50;6178998;23;20085;-93
2022/10/31 03:42:21;;;;;;;15.73;3.25;;;;;;;15.45;100.00;98207.69;6153946;23;20039;-94
2022/10/31 03:45:12;;;;;;;19.50;3.42;;;;;;;15.66;100.00;98196.38;6153929;23;20337;-94
2022/10/31 03:47:39;;;;;;;19.15;3.03;;;;;;;15.50;100.00;98195.25;6154238;23;20004;-93
2022/10/31 03:50:07;;;;;;;19.58;3.40;;;;;;;15.45;100.00;98203.31;6180080;23;20028;-93
2022/10/31 03:52:42;;;;;;;18.05;3.17;;;;;;;15.35;100.00;98208.06;6152314;23;20020;-94
2022/10/31 03:55:16;;;;;;;15.90;3.08;;;;;;;15.44;100.00;98206.00;6153117;23;20718;-94
2022/10/31 03:57:57;;;;;;;23.77;3.53;;;;;;;15.19;100.00;98191.13;6153763;23;20482;-94
2022/10/31 04:00:23;;;;;;;20.90;3.70;;;;;;;15.33;100.00;98203.75;6152150;23;20009;-94
2022/10/31 04:03:00;;;;;;;30.60;4.40;;;;;;;15.14;100.00;98200.94;6153174;23;20025;-94
2022/10/31 04:05:26;;;;;;;22.17;3.45;;;;;;;15.56;100.00;98194.16;6153759;23;20009;-95
2022/10/31 04:07:55;;;;;;;24.90;3.13;;;;;;;15.24;100.00;98178.69;6154795;23;20020;-95
2022/10/31 04:10:23;;;;;;;17.55;3.22;;;;;;;15.36;100.00;98180.88;6151248;23;20374;-94
2022/10/31 04:12:56;;;;;;;15.77;3.40;;;;;;;15.27;100.00;98183.00;6154640;23;20008;-94
2022/10/31 04:15:23;;;;;;;;;;;;;;;15.31;100.00;98190.69;6153986;23;20439;-94
2022/10/31 04:17:53;;;;;;;18.17;3.75;;;;;;;15.10;100.00;98183.59;6154223;23;19995;-93
2022/10/31 04:20:18;;;;;;;25.73;3.72;;;;;;;15.40;100.00;98183.38;6179418;23;20005;-94
2022/10/31 04:22:44;;;;;;;24.15;3.78;;;;;;;14.97;100.00;98191.91;6152355;23;20164;-94
2022/10/31 04:25:09;;;;;;;21.88;3.13;;;;;;;14.80;100.00;98187.25;6152604;23;20012;-93
2022/10/31 04:27:35;;;;;;;17.45;3.10;;;;;;;15.08;100.00;98188.91;6153670;23;20021;-94
2022/10/31 04:30:00;;;;;;;30.63;3.38;;;;;;;15.21;100.00;98194.56;6153264;23;20009;-95
2022/10/31 04:32:26;;;;;;;24.67;3.47;;;;;;;15.12;100.00;98185.25;6181185;23;20041;-94
2022/10/31 04:34:51;;;;;;;22.10;3.20;;;;;;;15.09;100.00;98193.25;6153848;23;20044;-94
2022/10/31 04:37:16;;;;;;;18.80;2.72;;;;;;;15.42;100.00;98192.91;6153941;23;20355;-94
2022/10/31 04:39:42;;;;;;;33.85;4.13;;;;;;;15.39;100.00;98181.66;6180494;23;20457;-95
2022/10/31 04:42:08;;;;;;;20.60;3.00;;;;;;;14.96;100.00;98178.84;6153177;23;20009;-93
2022/10/31 04:44:34;;;;;;;21.65;3.70;;;;;;;15.28;100.00;98179.44;6153164;23;20017;-93
2022/10/31 04:46:59;;;;;;;16.90;3.05;;;;;;;15.26;100.00;98170.75;6151517;23;20005;-94
2022/10/31 04:49:24;;;;;;;17.45;3.15;;;;;;;15.57;100.00;98174.84;6176383;23;20012;-94
2022/10/31 04:51:50;;;;;;;18.80;3.20;;;;;;;15.00;100.00;98170.81;6150096;23;20581;-94
2022/10/31 04:54:15;;;;;;;21.08;3.65;;;;;;;15.02;100.00;98162.88;6150055;23;20009;-94
2022/10/31 04:56:41;;;;;;;15.88;2.63;;;;;;;15.03;100.00;98169.84;6177743;23;20020;-92
2022/10/31 04:59:07;;;;;;;17.17;2.78;;;;;;;15.30;100.00;98167.94;6150384;23;20341;-94
2022/10/31 05:01:33;;;;;;;21.85;3.78;;;;;;;15.47;100.00;98159.41;6152613;23;20013;-95
2022/10/31 05:03:58;;;;;;;19.05;3.15;;;;;;;15.33;100.00;98159.09;6153499;23;20019;-93
2022/10/31 05:06:24;;;;;;;18.73;3.00;;;;;;;15.28;100.00;98154.03;6152289;23;20009;-93
2022/10/31 05:08:49;;;;;;;24.80;3.22;;;;;;;15.56;100.00;98149.47;6177606;23;20432;-93
2022/10/31 05:11:14;;;;;;;16.90;3.05;;;;;;;15.18;100.00;98147.41;6177947;23;20051;-92
2022/10/31 05:13:43;;;;;;;22.63;3.17;;;;;;;15.31;100.00;98153.91;6153068;23;20059;-93
2022/10/31 05:16:08;;;;;;;22.90;3.50;;;;;;;15.36;100.00;98154.59;6152359;23;20013;-93
2022/10/31 05:18:33;;;;;;;23.30;3.10;;;;;;;15.34;100.00;98138.03;6152519;23;20431;-94
2022/10/31 05:20:59;;;;;;;15.75;3.15;;;;;;;15.29;100.00;98147.00;6178072;23;20016;-94
2022/10/31 05:23:24;;;;;;;19.45;3.53;;;;;;;15.18;100.00;98150.03;6152754;23;20009;-93
2022/10/31 05:25:50;;;;;;;16.17;2.95;;;;;;;15.41;100.00;98161.44;6152037;23;20424;-94
2022/10/31 05:28:15;;;;;;;30.23;3.95;;;;;;;14.91;100.00;98163.25;6153106;23;20056;-94
2022/10/31 05:30:41;;;;;;;23.20;2.92;;;;;;;15.30;100.00;98153.97;6152837;23;20013;-93
2022/10/31 05:33:06;;;;;;;20.35;3.17;;;;;;;15.59;100.00;98155.47;6178518;23;20009;-93
2022/10/31 05:35:32;;;;;;;19.10;3.53;;;;;;;15.32;100.00;98137.25;6178328;23;20044;-91
2022/10/31 05:37:59;;;;;;;15.40;2.95;;;;;;;15.74;100.00;98150.50;6180394;23;20822;-93
2022/10/31 05:40:25;;;;;;;18.77;2.92;;;;;;;15.66;100.00;98148.22;6154322;23;19997;-93
2022/10/31 05:42:52;;;;;;;14.23;3.47;;;;;;;15.44;100.00;98145.56;6153640;23;20104;-93
2022/10/31 05:45:19;;;;;;;20.65;3.70;;;;;;;15.45;100.00;98149.88;6153153;23;20001;-93
2022/10/31 05:47:55;;;;;;;18.90;3.67;;;;;;;15.49;100.00;98143.59;6181856;23;20139;-93
2022/10/31 05:50:22;;;;;;;20.50;3.63;;;;;;;15.55;100.00;98143.38;6151706;23;20001;-93
2022/10/31 05:52:53;;;;;;;20.13;3.67;;;;;;;15.19;100.00;98149.97;6151180;23;20020;-94
2022/10/31 05:55:18;;;;;;;18.08;3.38;;;;;;;15.47;100.00;98143.66;6177569;23;20004;-94
2022/10/31 05:57:44;;;;;;;18.23;2.83;;;;;;;15.68;100.00;98149.88;6155176;23;20017;-93
2022/10/31 06:00:10;;;;;;;18.55;3.67;;;;;;;15.69;100.00;98159.44;6152146;23;20021;-94
2022/10/31 06:02:35;;;;;;;20.42;3.60;;;;;;;15.29;100.00;98154.88;6152233;23;20043;-93
2022/10/31 06:05:02;;;;;;;19.35;3.63;;;;;;;15.28;100.00;98156.66;6153033;23;20013;-94
2022/10/31 06:07:32;;;;;;;16.55;2.90;;;;;;;15.53;100.00;98156.56;6154005;23;20009;-94
2022/10/31 06:09:57;;;;;;;19.38;3.67;;;;;;;15.27;100.00;98162.81;6155795;23;20447;-94
2022/10/31 06:12:22;;;;;;;17.48;3.47;;;;;;;15.51;100.00;98149.66;6181724;23;20008;-94
2022/10/31 06:14:48;;;;;;;19.27;3.05;;;;;;;15.60;100.00;98143.19;6155815;23;20013;-94
2022/10/31 06:17:13;;;;;;;14.82;2.65;;;;;;;15.60;100.00;98145.81;6155671;23;20111;-93
2022/10/31 06:19:39;;;;;;;23.42;3.20;;;;;;;15.47;100.00;98137.56;6154893;23;20012;-95
2022/10/31 06:22:04;;;;;;;17.40;3.28;;;;;;;15.23;100.00;98153.34;6155873;23;20015;-94
2022/10/31 06:24:29;;;;;;;17.00;3.50;;;;;;;15.33;100.00;98144.19;6153062;23;20063;-94
2022/10/31 06:26:55;;;;;;;15.68;2.60;;;;;;;15.35;100.00;98138.88;6155453;23;20004;-93
2022/10/31 06:29:20;;;;;;;24.02;3.13;;;;;;;15.31;100.00;98135.53;6154818;23;20396;-94
2022/10/31 06:31:46;;;;;;;14.25;2.60;;;;;;;15.08;100.00;98138.16;6152510;23;20070;-92
2022/10/31 06:34:11;;;;;;;20.17;2.90;;;;;;;15.33;100.00;98125.78;6154959;23;20096;-93
2022/10/31 06:36:36;;;;;;;14.52;3.10;;;;;;;15.25;100.00;98125.22;6182212;23;20036;-92
2022/10/31 06:39:02;;;;;;;19.52;3.30;;;;;;;15.67;100.00;98111.34;6180641;23;20439;-93
2022/10/31 06:41:27;;;;;;;16.40;3.15;;;;;;;15.66;100.00;98120.13;6155013;23;20000;-93
2022/10/31 06:43:52;;;;;;;16.45;2.85;;;;;;;16.03;100.00;98105.53;6181302;23;20004;-92
2022/10/31 06:46:18;;;;;;;20.67;2.80;;;;;;;15.58;100.00;98114.31;6181088;23;20083;-93
2022/10/31 06:48:43;;;;;;;14.82;2.47;;;;;;;15.34;100.00;98111.75;6154807;23;20645;-94
2022/10/31 06:51:09;;;;;;;15.35;2.67;;;;;;;15.61;100.00;98108.94;6182723;23;20105;-94
2022/10/31 06:53:35;;;;;;;16.40;3.00;;;;;;;15.94;100.00;98100.66;6152939;23;20092;-94
2022/10/31 06:56:01;;;;;;;17.70;3.10;;;;;;;15.39;100.00;98098.41;6181086;23;20466;-94
2022/10/31 06:58:26;;;;;;;16.20;2.80;;;;;;;15.84;100.00;98109.84;6153651;23;20001;-91
2022/10/31 07:00:52;;;;;;;22.40;2.92;;;;;;;15.92;100.00;98099.88;6153083;23;20097;-94
2022/10/31 07:03:17;;;;;;;16.15;3.10;;;;;;;15.68;100.00;98099.91;6155475;23;20079;-94
2022/10/31 07:05:43;;;;;;;21.73;2.63;;;;;;;15.90;100.00;98101.69;6155315;23;20041;-94
2022/10/31 07:08:13;;;;;;;14.45;2.78;;;;;;;15.75;100.00;98104.91;6154587;23;20017;-93
2022/10/31 07:10:41;;;;;;;15.65;2.67;;;;;;;15.84;100.00;98110.69;6155152;23;20017;-93
2022/10/31 07:13:10;;;;;;;21.50;3.00;;;;;;;15.83;100.00;98106.34;6154830;23;20012;-94
2022/10/31 07:15:37;;;;;;;17.13;2.47;;;;;;;15.49;100.00;98112.06;6155640;23;20020;-94
2022/10/31 07:18:04;;;;;;;18.30;2.72;;;;;;;15.48;100.00;98102.47;6155139;23;20067;-94
2022/10/31 07:20:31;;;;;;;17.10;2.60;;;;;;;15.75;100.00;98107.53;6154710;23;20412;-93
2022/10/31 07:22:56;;;;;;;23.00;2.97;;;;;;;15.73;100.00;98107.59;6155095;23;19997;-93
2022/10/31 07:25:23;;;;;;;16.70;2.53;;;;;;;15.47;100.00;98111.28;6154785;23;20008;-94
2022/10/31 07:27:48;;;;;;;17.50;2.15;;;;;;;15.72;100.00;98098.00;6155303;23;20021;-93
2022/10/31 07:30:14;;;;;;;17.25;2.55;;;;;;;16.04;100.00;98109.00;6153561;23;20013;-93
2022/10/31 07:32:45;;;;;;;14.15;2.63;;;;;;;15.96;100.00;98113.72;6154557;23;20008;-94
2022/10/31 07:35:13;;;;;;;15.73;2.10;;;;;;;16.23;100.00;98105.59;6154402;23;19996;-94
2022/10/31 07:37:39;;;;;;;15.15;2.35;;;;;;;15.61;100.00;98101.06;6181397;23;20017;-93
2022/10/31 07:40:06;;;;;;;16.33;2.33;;;;;;;15.52;100.00;98098.81;6154329;23;20009;-94
2022/10/31 07:42:36;;;;;;;15.15;2.42;;;;;;;15.59;100.00;98110.78;6154733;23;20477;-93
2022/10/31 07:45:03;;;;;;;14.35;2.33;;;;;;;15.55;100.00;98110.97;6181148;23;20075;-93
2022/10/31 07:47:28;;;;;;;16.90;2.58;;;;;;;15.86;100.00;98114.09;6154367;23;20032;-93
2022/10/31 07:49:54;;;;;;;15.02;2.25;;;;;;;15.71;100.00;98109.44;6153499;23;20009;-93
2022/10/31 07:52:19;;;;;;;16.00;2.30;;;;;;;15.49;100.00;98109.44;6181347;23;20023;-92
2022/10/31 07:54:45;;;;;;;11.32;2.13;;;;;;;15.83;100.00;98110.75;6153990;23;20142;-94
2022/10/31 07:57:10;;;;;;;15.40;2.20;;;;;;;15.63;100.00;98116.75;6152723;23;20005;-93
2022/10/31 07:59:36;;;;;;;17.45;2.42;;;;;;;15.69;100.00;98127.91;6154129;23;20024;-94
2022/10/31 08:02:01;;;;;;;11.75;2.70;;;;;;;15.83;100.00;98126.53;6154769;23;20020;-93
2022/10/31 08:04:27;;;;;;;13.75;2.28;;;;;;;15.98;100.00;98117.16;6154568;23;20005;-93
2022/10/31 08:06:52;;;;;;;15.05;2.20;;;;;;;15.77;100.00;98121.47;6154046;23;20392;-94
2022/10/31 08:09:17;;;;;;;15.35;1.80;;;;;;;15.69;100.00;98127.91;6155126;23;20088;-94
2022/10/31 08:11:43;;;;;;;14.70;2.05;;;;;;;15.93;100.00;98124.38;6153807;23;20009;-94
2022/10/31 08:14:08;;;;;;;12.30;2.28;;;;;;;16.12;100.00;98125.31;6181448;23;20004;-94
2022/10/31 08:16:33;;;;;;;13.80;2.33;;;;;;;15.70;100.00;98129.63;6154404;23;20021;-94
2022/10/31 08:18:59;;;;;;;15.38;2.00;;;;;;;15.84;100.00;98138.75;6154966;23;20008;-94
2022/10/31 08:21:24;;;;;;;14.27;2.33;;;;;;;15.69;100.00;98132.31;6155178;23;20005;-93
2022/10/31 08:23:49;;;;;;;11.95;2.28;;;;;;;15.63;100.00;98138.66;6155283;23;20027;-94
2022/10/31 08:26:17;;;;;;;16.85;2.80;;;;;;;15.64;100.00;98135.13;6153808;23;20017;-94
2022/10/31 08:28:42;;;;;;;15.07;2.67;;;;;;;15.45;100.00;98136.75;6154622;23;20044;-94
2022/10/31 08:31:09;;;;;;;14.80;2.50;;;;;;;15.75;100.00;98118.91;6153745;23;20324;-94
2022/10/31 08:33:35;;;;;;;16.55;2.65;;;;;;;15.73;100.00;98128.63;6151155;23;20001;-93
2022/10/31 08:36:08;;;;;;;14.38;2.53;;;;;;;15.64;100.00;98116.72;6180985;23;20009;-93
2022/10/31 08:38:33;;;;;;;13.82;2.28;;;;;;;16.02;100.00;98113.50;6179737;23;20013;-95
2022/10/31 08:40:59;;;;;;;13.93;2.40;;;;;;;15.90;100.00;98135.03;6180784;23;20019;-92
2022/10/31 08:43:25;;;;;;;16.38;2.67;;;;;;;15.94;100.00;98119.06;6179259;23;20008;-95
2022/10/31 08:45:50;;;;;;;13.40;2.50;;;;;;;15.73;100.00;98127.75;6178606;23;20009;-93
2022/10/31 08:48:16;;;;;;;18.67;2.50;;;;;;;16.02;100.00;98119.59;6181217;23;20015;-94
2022/10/31 08:50:44;;;;;;;13.82;2.17;;;;;;;15.90;100.00;98124.50;6180695;23;20080;-94
2022/10/31 08:53:13;;;;;;;15.95;2.55;;;;;;;15.72;100.00;98118.19;6154034;23;20040;-94
2022/10/31 08:55:39;;;;;;;15.07;2.53;;;;;;;15.98;100.00;98118.00;6153497;23;20040;-95
2022/10/31 08:58:09;;;;;;;10.10;2.15;;;;;;;15.91;100.00;98100.78;6180987;23;20005;-93
2022/10/31 09:00:35;;;;;;;14.43;2.88;;;;;;;16.01;100.00;98115.25;6154723;23;20017;-94
2022/10/31 09:03:04;;;;;;;13.00;2.40;;;;;;;16.08;100.00;98112.38;6153927;23;20009;-94
2022/10/31 09:05:30;;;;;;;16.70;2.90;;;;;;;16.14;100.00;98106.84;6153440;23;20032;-94
2022/10/31 09:07:57;;;;;;;19.08;2.92;;;;;;;15.64;100.00;98111.47;6155571;23;20312;-94
2022/10/31 09:10:23;;;;;;;25.00;3.28;;;;;;;16.16;100.00;98102.38;6153261;23;20024;-93
2022/10/31 09:13:09;;;;;;;17.27;2.60;;;;;;;16.01;100.00;98101.25;6150541;23;20012;-93
2022/10/31 09:15:38;;;;;;;20.88;2.97;;;;;;;16.27;100.00;98096.66;6155299;23;20044;-94
2022/10/31 09:18:05;;;;;;;14.00;2.30;;;;;;;16.25;100.00;98086.19;6179549;23;20009;-92
2022/10/31 09:20:32;;;;;;;14.25;2.38;;;;;;;16.47;100.00;98095.81;6152920;23;20577;-93
2022/10/31 09:22:59;;;;;;;18.67;3.00;;;;;;;16.25;100.00;98088.81;6151022;23;20032;-92
2022/10/31 09:25:26;;;;;;;14.82;2.50;;;;;;;16.42;100.00;98090.72;6151750;23;20036;-93
2022/10/31 09:27:59;;;;;;;13.18;2.70;;;;;;;16.53;100.00;98095.53;6178553;23;20440;-93
2022/10/31 09:30:26;;;;;;;13.23;2.97;;;;;;;16.08;100.00;98100.06;6146679;23;20009;-93
2022/10/31 09:33:03;;;;;;;14.85;3.08;;;;;;;16.67;100.00;98077.34;6148747;23;20016;-93
2022/10/31 09:35:30;;;;;;;16.63;3.00;;;;;;;16.63;100.00;98077.53;6145796;23;20009;-93
2022/10/31 09:37:56;;;;;;;11.13;2.90;;;;;;;16.47;100.00;98049.28;6147269;23;20025;-93
2022/10/31 09:40:29;;;;;;;21.42;3.00;;;;;;;17.22;100.00;98059.97;6148522;23;20104;-94
2022/10/31 09:43:07;;;;;;;12.10;2.50;;;;;;;17.29;100.00;98055.25;6151598;23;20063;-93
2022/10/31 09:45:37;;;;;;;16.67;2.85;;;;;;;16.76;100.00;98059.41;6150368;23;20013;-92
2022/10/31 09:48:29;;;;;;;14.23;2.20;;;;;;;17.05;100.00;98058.13;6177789;23;20406;-93
2022/10/31 09:51:05;;;;;;;9.20;2.10;;;;;;;17.10;100.00;98057.91;6149111;23;20706;-93
2022/10/31 09:53:30;;;;;;;13.48;2.78;;;;;;;16.77;100.00;98056.72;6151379;23;20009;-93
2022/10/31 09:55:57;;;;;;;15.73;2.47;;;;;;;16.77;100.00;98063.75;6150691;23;20027;-94
2022/10/31 09:58:31;;;;;;;16.48;2.40;;;;;;;16.76;100.00;98054.13;6150031;23;20055;-92
2022/10/31 10:01:00;;;;;;;12.63;2.40;;;;;;;17.21;100.00;98045.06;6150263;23;20029;-92
2022/10/31 10:03:28;;;;;;;15.35;2.05;;;;;;;16.55;100.00;98062.09;6149525;23;20085;-94
2022/10/31 10:06:02;;;;;;;17.55;2.30;;;;;;;16.45;100.00;98061.66;6149807;23;20025;-93
2022/10/31 10:08:32;;;;;;;14.00;2.10;;;;;;;16.53;100.00;98067.44;6150943;23;20063;-93
2022/10/31 10:11:14;;;;;;;16.13;2.20;;;;;;;16.68;100.00;98067.66;6151999;23;20064;-92
2022/10/31 10:13:59;;;;;;;13.82;2.00;;;;;;;16.84;100.00;98060.78;6151747;23;20123;-93
2022/10/31 10:16:53;;;;;;;12.82;2.10;;;;;;;16.95;100.00;98062.97;6151495;23;20432;-93
2022/10/31 10:19:37;;;;;;;13.73;2.28;;;;;;;16.96;100.00;98048.00;6152053;23;20024;-93
2022/10/31 10:22:42;;;;;;;8.65;1.88;;;;;;;16.86;100.00;98051.03;6178876;23;20016;-94
2022/10/31 10:25:11;;;;;;;13.93;2.00;;;;;;;16.58;100.00;98059.31;6180939;23;20336;-95
2022/10/31 10:27:48;;;;;;;11.23;1.75;;;;;;;16.76;100.00;98055.00;6154061;23;20343;-94
2022/10/31 10:30:18;;;;;;;15.10;2.25;;;;;;;17.35;100.00;98047.88;6153365;23;20025;-93
2022/10/31 10:32:49;;;;;;;11.90;2.65;;;;;;;16.88;100.00;98040.41;6155712;23;20016;-94
2022/10/31 10:35:38;;;;;;;12.43;2.00;;;;;;;17.10;100.00;98047.34;6154490;23;20013;-93
2022/10/31 10:38:26;;;;;;;7.75;1.58;;;;;;;16.92;100.00;98041.16;6154742;23;20009;-95
2022/10/31 10:40:53;;;;;;;10.30;2.17;;;;;;;17.18;100.00;98043.44;6155216;23;20493;-94
2022/10/31 10:43:37;;;;;;;11.77;2.17;;;;;;;17.23;100.00;98041.44;6155665;23;20032;-93
2022/10/31 10:48:57;;;;;;;11.70;1.80;;;;;;;16.91;100.00;98032.44;6181422;23;20087;-94
2022/10/31 10:51:31;;;;;;;15.55;2.42;;;;;;;17.32;100.00;98034.03;6181575;23;20442;-93
2022/10/31 10:54:18;;;;;;;10.68;1.85;;;;;;;17.11;100.00;98035.91;6155276;23;19997;-93
2022/10/31 10:57:21;;;;;;;12.60;2.10;;;;;;;17.22;100.00;98038.88;6152640;23;20013;-93
2022/10/31 10:59:47;;;;;;;12.73;2.08;;;;;;;17.60;100.00;98030.88;6153702;23;20008;-93
2022/10/31 11:02:24;;;;;;;14.38;2.45;;;;;;;17.21;100.00;98039.78;6180665;23;20020;-93
2022/10/31 11:04:55;;;;;;;12.10;2.10;;;;;;;17.20;100.00;98033.69;6154795;23;20013;-94
2022/10/31 11:07:21;;;;;;;14.80;2.25;;;;;;;17.72;100.00;98027.63;6181284;23;20478;-94
2022/10/31 11:09:47;;;;;;;14.23;2.22;;;;;;;17.45;100.00;98040.38;6155569;23;20009;-93
2022/10/31 11:12:26;;;;;;;9.77;2.13;;;;;;;17.57;100.00;98026.59;6152872;23;20016;-94
2022/10/31 11:15:03;;;;;;;9.85;2.28;;;;;;;17.15;100.00;98019.03;6153564;23;20097;-92
2022/10/31 11:17:35;;;;;;;16.27;2.45;;;;;;;17.82;100.00;98021.91;6154731;23;20017;-93
2022/10/31 11:20:23;;;;;;;10.73;2.03;;;;;;;17.23;100.00;98011.59;6153016;23;20004;-94
2022/10/31 11:22:48;;;;;;;9.95;2.30;;;;;;;17.65;100.00;98006.94;6153482;23;20032;-93
2022/10/31 11:25:25;;;;;;;14.75;2.28;;;;;;;17.37;100.00;97995.97;6154865;23;20039;-94
2022/10/31 11:28:04;;;;;;;13.77;2.30;;;;;;;18.21;100.00;97990.00;6153494;23;20016;-93
2022/10/31 11:30:35;;;;;;;12.70;2.42;;;;;;;18.06;100.00;97981.13;6154260;23;20254;-93
2022/10/31 11:33:01;;;;;;;14.90;2.05;;;;;;;18.21;100.00;97975.97;6154124;23;20008;-93